sensor_id;sensor_type;location;lat;lon;timestamp;P1;durP1;ratioP1;P2;durP2;ratioP2
54539;SDS011;40438;52.992;18.604;2024-01-10T00:00:21;19.70;;;10.52;;
54539;SDS011;40438;52.992;18.604;2024-01-10T00:02:47;23.45;;;11.02;;
54539;SDS011;40438;52.992;18.604;2024-01-10T00:05:12;22.35;;;10.27;;
54539;SDS011;40438;52.992;18.604;2024-01-10T00:07:40;17.50;;;8.63;;
54539;SDS011;40438;52.992;18.604;2024-01-10T00:10:06;22.15;;;8.93;;
54539;SDS011;40438;52.992;18.604;2024-01-10T00:12:32;30.02;;;10.57;;
54539;SDS011;40438;52.992;18.604;2024-01-10T00:14:58;29.77;;;9.48;;
54539;SDS011;40438;52.992;18.604;2024-01-10T00:17:24;18.38;;;7.30;;
54539;SDS011;40438;52.992;18.604;2024-01-10T00:19:49;25.45;;;11.20;;
54539;SDS011;40438;52.992;18.604;2024-01-10T00:22:15;29.58;;;9.52;;
54539;SDS011;40438;52.992;18.604;2024-01-10T00:24:42;24.08;;;9.25;;
54539;SDS011;40438;52.992;18.604;2024-01-10T00:27:08;28.85;;;7.22;;
54539;SDS011;40438;52.992;18.604;2024-01-10T00:29:34;27.85;;;7.35;;
54539;SDS011;40438;52.992;18.604;2024-01-10T00:32:00;18.40;;;6.68;;
54539;SDS011;40438;52.992;18.604;2024-01-10T00:34:25;22.85;;;7.97;;
54539;SDS011;40438;52.992;18.604;2024-01-10T00:36:51;29.85;;;10.45;;
54539;SDS011;40438;52.992;18.604;2024-01-10T00:39:17;20.55;;;8.63;;
54539;SDS011;40438;52.992;18.604;2024-01-10T00:41:44;34.45;;;7.45;;
54539;SDS011;40438;52.992;18.604;2024-01-10T00:44:10;16.83;;;7.47;;
54539;SDS011;40438;52.992;18.604;2024-01-10T00:46:36;24.38;;;8.40;;
54539;SDS011;40438;52.992;18.604;2024-01-10T00:49:01;31.90;;;8.85;;
54539;SDS011;40438;52.992;18.604;2024-01-10T00:51:27;22.05;;;8.23;;
54539;SDS011;40438;52.992;18.604;2024-01-10T00:53:53;17.33;;;7.82;;
54539;SDS011;40438;52.992;18.604;2024-01-10T00:56:19;35.47;;;10.15;;
54539;SDS011;40438;52.992;18.604;2024-01-10T00:58:46;28.75;;;10.32;;
54539;SDS011;40438;52.992;18.604;2024-01-10T01:01:12;23.60;;;8.00;;
54539;SDS011;40438;52.992;18.604;2024-01-10T01:03:37;22.90;;;9.57;;
54539;SDS011;40438;52.992;18.604;2024-01-10T01:06:03;33.65;;;8.30;;
54539;SDS011;40438;52.992;18.604;2024-01-10T01:08:29;18.33;;;7.25;;
54539;SDS011;40438;52.992;18.604;2024-01-10T01:10:55;31.02;;;8.75;;
54539;SDS011;40438;52.992;18.604;2024-01-10T01:13:20;27.70;;;10.02;;
54539;SDS011;40438;52.992;18.604;2024-01-10T01:15:48;20.00;;;7.22;;
54539;SDS011;40438;52.992;18.604;2024-01-10T01:18:13;14.75;;;7.93;;
54539;SDS011;40438;52.992;18.604;2024-01-10T01:20:39;24.88;;;7.53;;
54539;SDS011;40438;52.992;18.604;2024-01-10T01:23:05;27.30;;;8.38;;
54539;SDS011;40438;52.992;18.604;2024-01-10T01:25:31;25.88;;;7.38;;
54539;SDS011;40438;52.992;18.604;2024-01-10T01:27:57;29.02;;;8.95;;
54539;SDS011;40438;52.992;18.604;2024-01-10T01:30:22;23.55;;;8.25;;
54539;SDS011;40438;52.992;18.604;2024-01-10T01:32:49;16.48;;;7.32;;
54539;SDS011;40438;52.992;18.604;2024-01-10T01:35:15;19.63;;;9.05;;
54539;SDS011;40438;52.992;18.604;2024-01-10T01:37:41;24.58;;;7.38;;
54539;SDS011;40438;52.992;18.604;2024-01-10T01:40:07;26.33;;;10.27;;
54539;SDS011;40438;52.992;18.604;2024-01-10T01:42:33;20.67;;;7.70;;
54539;SDS011;40438;52.992;18.604;2024-01-10T01:44:59;14.65;;;6.95;;
54539;SDS011;40438;52.992;18.604;2024-01-10T01:47:25;32.72;;;9.85;;
54539;SDS011;40438;52.992;18.604;2024-01-10T01:49:52;22.75;;;7.97;;
54539;SDS011;40438;52.992;18.604;2024-01-10T01:52:18;24.90;;;9.00;;
54539;SDS011;40438;52.992;18.604;2024-01-10T01:54:44;18.42;;;8.35;;
54539;SDS011;40438;52.992;18.604;2024-01-10T01:57:10;27.58;;;9.57;;
54539;SDS011;40438;52.992;18.604;2024-01-10T01:59:36;28.02;;;10.77;;
54539;SDS011;40438;52.992;18.604;2024-01-10T02:02:02;24.67;;;9.13;;
54539;SDS011;40438;52.992;18.604;2024-01-10T02:04:29;18.17;;;8.32;;
54539;SDS011;40438;52.992;18.604;2024-01-10T02:06:57;25.27;;;10.27;;
54539;SDS011;40438;52.992;18.604;2024-01-10T02:09:23;36.15;;;11.50;;
54539;SDS011;40438;52.992;18.604;2024-01-10T02:11:49;34.38;;;10.98;;
54539;SDS011;40438;52.992;18.604;2024-01-10T02:14:15;14.95;;;7.65;;
54539;SDS011;40438;52.992;18.604;2024-01-10T02:16:41;27.23;;;10.15;;
54539;SDS011;40438;52.992;18.604;2024-01-10T02:19:19;18.73;;;7.50;;
54539;SDS011;40438;52.992;18.604;2024-01-10T02:21:46;26.85;;;10.07;;
54539;SDS011;40438;52.992;18.604;2024-01-10T02:24:13;32.63;;;9.77;;
54539;SDS011;40438;52.992;18.604;2024-01-10T02:26:40;14.07;;;8.30;;
54539;SDS011;40438;52.992;18.604;2024-01-10T02:29:06;30.23;;;10.45;;
54539;SDS011;40438;52.992;18.604;2024-01-10T02:31:32;40.45;;;15.23;;
54539;SDS011;40438;52.992;18.604;2024-01-10T02:33:58;41.58;;;11.30;;
54539;SDS011;40438;52.992;18.604;2024-01-10T02:36:24;43.22;;;12.95;;
54539;SDS011;40438;52.992;18.604;2024-01-10T02:38:49;33.33;;;14.82;;
54539;SDS011;40438;52.992;18.604;2024-01-10T02:41:15;38.15;;;12.10;;
54539;SDS011;40438;52.992;18.604;2024-01-10T02:43:42;34.55;;;13.13;;
54539;SDS011;40438;52.992;18.604;2024-01-10T02:46:08;46.58;;;15.07;;
54539;SDS011;40438;52.992;18.604;2024-01-10T02:48:34;40.85;;;12.80;;
54539;SDS011;40438;52.992;18.604;2024-01-10T02:50:59;34.03;;;12.10;;
54539;SDS011;40438;52.992;18.604;2024-01-10T02:53:25;31.85;;;12.77;;
54539;SDS011;40438;52.992;18.604;2024-01-10T02:55:51;57.72;;;14.52;;
54539;SDS011;40438;52.992;18.604;2024-01-10T02:58:17;49.25;;;16.10;;
54539;SDS011;40438;52.992;18.604;2024-01-10T03:00:44;35.92;;;12.07;;
54539;SDS011;40438;52.992;18.604;2024-01-10T03:03:10;37.40;;;14.68;;
54539;SDS011;40438;52.992;18.604;2024-01-10T03:05:35;41.70;;;14.88;;
54539;SDS011;40438;52.992;18.604;2024-01-10T03:08:01;39.97;;;14.43;;
54539;SDS011;40438;52.992;18.604;2024-01-10T03:10:27;29.92;;;13.98;;
54539;SDS011;40438;52.992;18.604;2024-01-10T03:12:53;37.00;;;15.25;;
54539;SDS011;40438;52.992;18.604;2024-01-10T03:15:18;47.08;;;13.80;;
54539;SDS011;40438;52.992;18.604;2024-01-10T03:17:46;30.95;;;15.35;;
54539;SDS011;40438;52.992;18.604;2024-01-10T03:20:11;38.17;;;12.90;;
54539;SDS011;40438;52.992;18.604;2024-01-10T03:22:37;40.67;;;15.15;;
54539;SDS011;40438;52.992;18.604;2024-01-10T03:25:03;40.75;;;11.68;;
54539;SDS011;40438;52.992;18.604;2024-01-10T03:27:29;36.45;;;13.35;;
54539;SDS011;40438;52.992;18.604;2024-01-10T03:29:55;45.45;;;13.48;;
54539;SDS011;40438;52.992;18.604;2024-01-10T03:32:21;39.10;;;11.82;;
54539;SDS011;40438;52.992;18.604;2024-01-10T03:34:48;43.97;;;12.65;;
54539;SDS011;40438;52.992;18.604;2024-01-10T03:37:14;36.50;;;12.93;;
54539;SDS011;40438;52.992;18.604;2024-01-10T03:39:39;29.13;;;13.65;;
54539;SDS011;40438;52.992;18.604;2024-01-10T03:42:05;44.20;;;13.52;;
54539;SDS011;40438;52.992;18.604;2024-01-10T03:44:31;37.30;;;13.57;;
54539;SDS011;40438;52.992;18.604;2024-01-10T03:46:57;29.98;;;12.13;;
54539;SDS011;40438;52.992;18.604;2024-01-10T03:49:23;35.55;;;12.60;;
54539;SDS011;40438;52.992;18.604;2024-01-10T03:51:50;29.42;;;12.30;;
54539;SDS011;40438;52.992;18.604;2024-01-10T03:54:16;34.47;;;13.30;;
54539;SDS011;40438;52.992;18.604;2024-01-10T03:56:41;26.52;;;10.10;;
54539;SDS011;40438;52.992;18.604;2024-01-10T03:59:07;38.15;;;12.85;;
54539;SDS011;40438;52.992;18.604;2024-01-10T04:01:33;34.35;;;11.57;;
54539;SDS011;40438;52.992;18.604;2024-01-10T04:03:58;33.28;;;13.43;;
54539;SDS011;40438;52.992;18.604;2024-01-10T04:06:24;28.30;;;12.55;;
54539;SDS011;40438;52.992;18.604;2024-01-10T04:08:51;24.25;;;8.88;;
54539;SDS011;40438;52.992;18.604;2024-01-10T04:11:17;28.05;;;11.15;;
54539;SDS011;40438;52.992;18.604;2024-01-10T04:13:43;30.52;;;11.70;;
54539;SDS011;40438;52.992;18.604;2024-01-10T04:16:09;34.88;;;11.35;;
54539;SDS011;40438;52.992;18.604;2024-01-10T04:18:34;35.75;;;10.80;;
54539;SDS011;40438;52.992;18.604;2024-01-10T04:21:00;34.42;;;12.88;;
54539;SDS011;40438;52.992;18.604;2024-01-10T04:23:26;34.80;;;11.82;;
54539;SDS011;40438;52.992;18.604;2024-01-10T04:25:53;36.67;;;9.52;;
54539;SDS011;40438;52.992;18.604;2024-01-10T04:28:19;20.95;;;10.57;;
54539;SDS011;40438;52.992;18.604;2024-01-10T04:30:45;43.65;;;11.48;;
54539;SDS011;40438;52.992;18.604;2024-01-10T04:33:10;37.35;;;11.73;;
54539;SDS011;40438;52.992;18.604;2024-01-10T04:35:36;29.23;;;10.70;;
54539;SDS011;40438;52.992;18.604;2024-01-10T04:38:02;27.05;;;11.40;;
54539;SDS011;40438;52.992;18.604;2024-01-10T04:40:28;40.17;;;10.68;;
54539;SDS011;40438;52.992;18.604;2024-01-10T04:42:55;27.55;;;9.82;;
54539;SDS011;40438;52.992;18.604;2024-01-10T04:45:21;27.30;;;10.82;;
54539;SDS011;40438;52.992;18.604;2024-01-10T04:47:46;24.48;;;8.43;;
54539;SDS011;40438;52.992;18.604;2024-01-10T04:50:12;30.13;;;11.25;;
54539;SDS011;40438;52.992;18.604;2024-01-10T04:52:38;25.13;;;11.32;;
54539;SDS011;40438;52.992;18.604;2024-01-10T04:55:04;26.90;;;12.80;;
54539;SDS011;40438;52.992;18.604;2024-01-10T04:57:30;51.30;;;13.73;;
54539;SDS011;40438;52.992;18.604;2024-01-10T04:59:58;22.73;;;9.27;;
54539;SDS011;40438;52.992;18.604;2024-01-10T05:02:23;31.08;;;12.43;;
54539;SDS011;40438;52.992;18.604;2024-01-10T05:04:49;36.70;;;12.75;;
54539;SDS011;40438;52.992;18.604;2024-01-10T05:07:15;44.22;;;12.93;;
54539;SDS011;40438;52.992;18.604;2024-01-10T05:09:41;29.80;;;11.25;;
54539;SDS011;40438;52.992;18.604;2024-01-10T05:12:06;26.30;;;9.70;;
54539;SDS011;40438;52.992;18.604;2024-01-10T05:14:32;34.33;;;11.00;;
54539;SDS011;40438;52.992;18.604;2024-01-10T05:16:59;29.80;;;10.77;;
54539;SDS011;40438;52.992;18.604;2024-01-10T05:19:25;21.17;;;8.07;;
54539;SDS011;40438;52.992;18.604;2024-01-10T05:21:51;37.92;;;10.80;;
54539;SDS011;40438;52.992;18.604;2024-01-10T05:24:17;27.58;;;8.20;;
54539;SDS011;40438;52.992;18.604;2024-01-10T05:26:42;24.10;;;9.70;;
54539;SDS011;40438;52.992;18.604;2024-01-10T05:29:08;35.42;;;10.05;;
54539;SDS011;40438;52.992;18.604;2024-01-10T05:31:34;151.70;;;33.75;;
54539;SDS011;40438;52.992;18.604;2024-01-10T05:34:01;90.60;;;26.02;;
54539;SDS011;40438;52.992;18.604;2024-01-10T05:36:27;83.72;;;19.00;;
54539;SDS011;40438;52.992;18.604;2024-01-10T05:38:52;63.67;;;13.20;;
54539;SDS011;40438;52.992;18.604;2024-01-10T05:41:18;51.83;;;13.95;;
54539;SDS011;40438;52.992;18.604;2024-01-10T05:43:44;37.33;;;9.85;;
54539;SDS011;40438;52.992;18.604;2024-01-10T05:46:10;22.05;;;6.82;;
54539;SDS011;40438;52.992;18.604;2024-01-10T05:48:35;29.67;;;10.43;;
54539;SDS011;40438;52.992;18.604;2024-01-10T05:51:03;38.17;;;10.00;;
54539;SDS011;40438;52.992;18.604;2024-01-10T05:53:29;24.92;;;7.28;;
54539;SDS011;40438;52.992;18.604;2024-01-10T05:55:55;43.72;;;9.27;;
54539;SDS011;40438;52.992;18.604;2024-01-10T05:58:20;38.30;;;8.02;;
54539;SDS011;40438;52.992;18.604;2024-01-10T06:00:46;29.08;;;7.88;;
54539;SDS011;40438;52.992;18.604;2024-01-10T06:03:12;22.35;;;8.60;;
54539;SDS011;40438;52.992;18.604;2024-01-10T06:05:38;22.15;;;7.45;;
54539;SDS011;40438;52.992;18.604;2024-01-10T06:08:05;17.05;;;8.07;;
54539;SDS011;40438;52.992;18.604;2024-01-10T06:10:31;24.90;;;6.65;;
54539;SDS011;40438;52.992;18.604;2024-01-10T06:12:57;28.75;;;8.68;;
54539;SDS011;40438;52.992;18.604;2024-01-10T06:15:23;23.92;;;8.18;;
54539;SDS011;40438;52.992;18.604;2024-01-10T06:17:48;23.15;;;8.90;;
54539;SDS011;40438;52.992;18.604;2024-01-10T06:20:14;30.67;;;9.00;;
54539;SDS011;40438;52.992;18.604;2024-01-10T06:22:40;36.95;;;8.02;;
54539;SDS011;40438;52.992;18.604;2024-01-10T06:25:08;30.10;;;7.40;;
54539;SDS011;40438;52.992;18.604;2024-01-10T06:27:34;24.45;;;9.93;;
54539;SDS011;40438;52.992;18.604;2024-01-10T06:29:59;24.80;;;10.98;;
54539;SDS011;40438;52.992;18.604;2024-01-10T06:32:25;22.98;;;8.40;;
54539;SDS011;40438;52.992;18.604;2024-01-10T06:34:51;26.55;;;7.78;;
54539;SDS011;40438;52.992;18.604;2024-01-10T06:37:17;30.10;;;9.23;;
54539;SDS011;40438;52.992;18.604;2024-01-10T06:39:42;27.30;;;7.80;;
54539;SDS011;40438;52.992;18.604;2024-01-10T06:42:10;25.35;;;7.65;;
54539;SDS011;40438;52.992;18.604;2024-01-10T06:44:35;13.25;;;6.03;;
54539;SDS011;40438;52.992;18.604;2024-01-10T06:47:01;21.70;;;7.50;;
54539;SDS011;40438;52.992;18.604;2024-01-10T06:49:27;26.17;;;9.75;;
54539;SDS011;40438;52.992;18.604;2024-01-10T06:51:53;24.42;;;7.15;;
54539;SDS011;40438;52.992;18.604;2024-01-10T06:54:19;15.20;;;6.15;;
54539;SDS011;40438;52.992;18.604;2024-01-10T06:56:44;15.50;;;5.50;;
54539;SDS011;40438;52.992;18.604;2024-01-10T06:59:11;22.83;;;7.32;;
54539;SDS011;40438;52.992;18.604;2024-01-10T07:01:37;16.35;;;6.90;;
54539;SDS011;40438;52.992;18.604;2024-01-10T07:04:03;20.20;;;6.93;;
54539;SDS011;40438;52.992;18.604;2024-01-10T07:06:29;18.17;;;6.65;;
54539;SDS011;40438;52.992;18.604;2024-01-10T07:08:55;18.50;;;7.00;;
54539;SDS011;40438;52.992;18.604;2024-01-10T07:11:20;27.05;;;7.43;;
54539;SDS011;40438;52.992;18.604;2024-01-10T07:13:46;20.90;;;7.75;;
54539;SDS011;40438;52.992;18.604;2024-01-10T07:16:13;18.05;;;6.53;;
54539;SDS011;40438;52.992;18.604;2024-01-10T07:18:39;29.38;;;7.80;;
54539;SDS011;40438;52.992;18.604;2024-01-10T07:21:05;26.55;;;8.25;;
54539;SDS011;40438;52.992;18.604;2024-01-10T07:23:30;21.55;;;8.10;;
54539;SDS011;40438;52.992;18.604;2024-01-10T07:25:56;18.08;;;6.68;;
54539;SDS011;40438;52.992;18.604;2024-01-10T07:28:22;19.15;;;7.07;;
54539;SDS011;40438;52.992;18.604;2024-01-10T07:30:48;22.15;;;7.53;;
54539;SDS011;40438;52.992;18.604;2024-01-10T07:33:15;20.85;;;8.55;;
54539;SDS011;40438;52.992;18.604;2024-01-10T07:35:41;21.60;;;8.20;;
54539;SDS011;40438;52.992;18.604;2024-01-10T07:38:07;18.67;;;7.75;;
54539;SDS011;40438;52.992;18.604;2024-01-10T07:40:32;22.73;;;7.32;;
54539;SDS011;40438;52.992;18.604;2024-01-10T07:42:58;14.30;;;6.00;;
54539;SDS011;40438;52.992;18.604;2024-01-10T07:45:24;25.50;;;6.65;;
54539;SDS011;40438;52.992;18.604;2024-01-10T07:47:50;15.13;;;5.95;;
54539;SDS011;40438;52.992;18.604;2024-01-10T07:50:17;12.80;;;5.03;;
54539;SDS011;40438;52.992;18.604;2024-01-10T07:52:43;17.95;;;6.00;;
54539;SDS011;40438;52.992;18.604;2024-01-10T07:55:09;16.35;;;6.80;;
54539;SDS011;40438;52.992;18.604;2024-01-10T07:57:35;18.30;;;6.75;;
54539;SDS011;40438;52.992;18.604;2024-01-10T08:00:01;14.65;;;5.90;;
54539;SDS011;40438;52.992;18.604;2024-01-10T08:02:27;22.35;;;6.55;;
54539;SDS011;40438;52.992;18.604;2024-01-10T08:04:53;15.98;;;5.55;;
54539;SDS011;40438;52.992;18.604;2024-01-10T08:07:20;13.32;;;5.78;;
54539;SDS011;40438;52.992;18.604;2024-01-10T08:09:46;14.23;;;5.80;;
54539;SDS011;40438;52.992;18.604;2024-01-10T08:12:11;14.60;;;5.10;;
54539;SDS011;40438;52.992;18.604;2024-01-10T08:14:37;25.13;;;7.70;;
54539;SDS011;40438;52.992;18.604;2024-01-10T08:17:03;22.88;;;8.38;;
54539;SDS011;40438;52.992;18.604;2024-01-10T08:19:29;16.83;;;7.70;;
54539;SDS011;40438;52.992;18.604;2024-01-10T08:21:55;14.48;;;5.50;;
54539;SDS011;40438;52.992;18.604;2024-01-10T08:24:22;17.38;;;7.53;;
54539;SDS011;40438;52.992;18.604;2024-01-10T08:26:48;21.73;;;6.60;;
54539;SDS011;40438;52.992;18.604;2024-01-10T08:29:14;15.55;;;7.30;;
54539;SDS011;40438;52.992;18.604;2024-01-10T08:31:40;12.45;;;4.55;;
54539;SDS011;40438;52.992;18.604;2024-01-10T08:34:06;20.73;;;6.65;;
54539;SDS011;40438;52.992;18.604;2024-01-10T08:36:31;22.08;;;6.97;;
54539;SDS011;40438;52.992;18.604;2024-01-10T08:38:57;20.42;;;5.68;;
54539;SDS011;40438;52.992;18.604;2024-01-10T08:41:24;20.17;;;4.70;;
54539;SDS011;40438;52.992;18.604;2024-01-10T08:43:50;15.73;;;6.57;;
54539;SDS011;40438;52.992;18.604;2024-01-10T08:46:16;19.45;;;6.80;;
54539;SDS011;40438;52.992;18.604;2024-01-10T08:48:41;21.08;;;5.82;;
54539;SDS011;40438;52.992;18.604;2024-01-10T08:51:07;16.50;;;5.03;;
54539;SDS011;40438;52.992;18.604;2024-01-10T08:53:33;20.65;;;6.82;;
54539;SDS011;40438;52.992;18.604;2024-01-10T08:55:59;25.55;;;7.82;;
54539;SDS011;40438;52.992;18.604;2024-01-10T08:58:26;24.58;;;7.85;;
54539;SDS011;40438;52.992;18.604;2024-01-10T09:00:52;21.15;;;6.38;;
54539;SDS011;40438;52.992;18.604;2024-01-10T09:03:18;19.90;;;5.88;;
54539;SDS011;40438;52.992;18.604;2024-01-10T09:05:43;17.23;;;6.47;;
54539;SDS011;40438;52.992;18.604;2024-01-10T09:08:09;21.63;;;7.03;;
54539;SDS011;40438;52.992;18.604;2024-01-10T09:10:35;18.83;;;6.38;;
54539;SDS011;40438;52.992;18.604;2024-01-10T09:13:01;23.42;;;6.90;;
54539;SDS011;40438;52.992;18.604;2024-01-10T09:15:28;24.77;;;7.45;;
54539;SDS011;40438;52.992;18.604;2024-01-10T09:17:54;20.73;;;8.77;;
54539;SDS011;40438;52.992;18.604;2024-01-10T09:20:20;22.73;;;7.75;;
54539;SDS011;40438;52.992;18.604;2024-01-10T09:22:45;19.95;;;7.47;;
54539;SDS011;40438;52.992;18.604;2024-01-10T09:25:11;22.55;;;7.20;;
54539;SDS011;40438;52.992;18.604;2024-01-10T09:27:38;12.57;;;5.82;;
54539;SDS011;40438;52.992;18.604;2024-01-10T09:30:05;10.70;;;6.07;;
54539;SDS011;40438;52.992;18.604;2024-01-10T09:32:33;13.90;;;6.63;;
54539;SDS011;40438;52.992;18.604;2024-01-10T09:34:58;15.98;;;5.32;;
54539;SDS011;40438;52.992;18.604;2024-01-10T09:37:24;20.00;;;5.55;;
54539;SDS011;40438;52.992;18.604;2024-01-10T09:39:50;18.55;;;6.18;;
54539;SDS011;40438;52.992;18.604;2024-01-10T09:42:16;21.92;;;6.05;;
54539;SDS011;40438;52.992;18.604;2024-01-10T09:44:42;21.67;;;7.07;;
54539;SDS011;40438;52.992;18.604;2024-01-10T09:47:07;19.27;;;8.25;;
54539;SDS011;40438;52.992;18.604;2024-01-10T09:49:35;17.45;;;6.65;;
54539;SDS011;40438;52.992;18.604;2024-01-10T09:52:03;15.85;;;6.50;;
54539;SDS011;40438;52.992;18.604;2024-01-10T09:54:30;16.25;;;5.93;;
54539;SDS011;40438;52.992;18.604;2024-01-10T09:56:56;19.52;;;5.18;;
54539;SDS011;40438;52.992;18.604;2024-01-10T09:59:22;18.38;;;6.32;;
54539;SDS011;40438;52.992;18.604;2024-01-10T10:01:48;18.75;;;6.20;;
54539;SDS011;40438;52.992;18.604;2024-01-10T10:04:16;19.90;;;6.53;;
54539;SDS011;40438;52.992;18.604;2024-01-10T10:06:46;19.25;;;7.20;;
54539;SDS011;40438;52.992;18.604;2024-01-10T10:09:12;13.50;;;5.70;;
54539;SDS011;40438;52.992;18.604;2024-01-10T10:11:39;15.43;;;5.93;;
54539;SDS011;40438;52.992;18.604;2024-01-10T10:14:15;14.48;;;5.97;;
54539;SDS011;40438;52.992;18.604;2024-01-10T10:16:41;17.10;;;7.10;;
54539;SDS011;40438;52.992;18.604;2024-01-10T10:19:07;18.20;;;7.05;;
54539;SDS011;40438;52.992;18.604;2024-01-10T10:21:33;15.75;;;6.85;;
54539;SDS011;40438;52.992;18.604;2024-01-10T10:24:00;20.48;;;8.60;;
54539;SDS011;40438;52.992;18.604;2024-01-10T10:26:27;19.92;;;8.30;;
54539;SDS011;40438;52.992;18.604;2024-01-10T10:28:53;21.25;;;8.45;;
54539;SDS011;40438;52.992;18.604;2024-01-10T10:31:19;24.42;;;7.95;;
54539;SDS011;40438;52.992;18.604;2024-01-10T10:33:46;23.88;;;7.70;;
54539;SDS011;40438;52.992;18.604;2024-01-10T10:36:13;22.55;;;8.35;;
54539;SDS011;40438;52.992;18.604;2024-01-10T10:38:39;19.48;;;7.03;;
54539;SDS011;40438;52.992;18.604;2024-01-10T10:41:07;22.20;;;7.30;;
54539;SDS011;40438;52.992;18.604;2024-01-10T10:43:33;21.45;;;6.97;;
54539;SDS011;40438;52.992;18.604;2024-01-10T10:45:59;22.63;;;8.57;;
54539;SDS011;40438;52.992;18.604;2024-01-10T10:48:26;15.00;;;6.68;;
54539;SDS011;40438;52.992;18.604;2024-01-10T10:50:59;19.73;;;7.35;;
54539;SDS011;40438;52.992;18.604;2024-01-10T10:53:29;22.80;;;7.22;;
54539;SDS011;40438;52.992;18.604;2024-01-10T10:55:57;19.08;;;7.70;;
54539;SDS011;40438;52.992;18.604;2024-01-10T10:58:25;18.50;;;8.10;;
54539;SDS011;40438;52.992;18.604;2024-01-10T11:00:51;9.45;;;4.68;;
54539;SDS011;40438;52.992;18.604;2024-01-10T11:03:18;18.83;;;9.20;;
54539;SDS011;40438;52.992;18.604;2024-01-10T11:05:45;24.70;;;8.13;;
54539;SDS011;40438;52.992;18.604;2024-01-10T11:08:12;16.42;;;6.82;;
54539;SDS011;40438;52.992;18.604;2024-01-10T11:10:42;21.00;;;7.38;;
54539;SDS011;40438;52.992;18.604;2024-01-10T11:13:16;19.80;;;6.85;;
54539;SDS011;40438;52.992;18.604;2024-01-10T11:16:11;25.92;;;7.78;;
54539;SDS011;40438;52.992;18.604;2024-01-10T11:19:05;17.17;;;7.03;;
54539;SDS011;40438;52.992;18.604;2024-01-10T11:21:49;24.60;;;8.75;;
54539;SDS011;40438;52.992;18.604;2024-01-10T11:24:25;17.85;;;7.03;;
54539;SDS011;40438;52.992;18.604;2024-01-10T11:26:58;18.90;;;6.57;;
54539;SDS011;40438;52.992;18.604;2024-01-10T11:29:33;18.10;;;7.78;;
54539;SDS011;40438;52.992;18.604;2024-01-10T11:32:01;25.83;;;7.10;;
54539;SDS011;40438;52.992;18.604;2024-01-10T11:34:27;20.42;;;8.15;;
54539;SDS011;40438;52.992;18.604;2024-01-10T11:37:10;15.43;;;6.82;;
54539;SDS011;40438;52.992;18.604;2024-01-10T11:39:36;22.85;;;7.78;;
54539;SDS011;40438;52.992;18.604;2024-01-10T11:42:01;24.83;;;8.07;;
54539;SDS011;40438;52.992;18.604;2024-01-10T11:44:28;15.07;;;6.95;;
54539;SDS011;40438;52.992;18.604;2024-01-10T11:46:56;15.70;;;6.07;;
54539;SDS011;40438;52.992;18.604;2024-01-10T11:49:23;18.17;;;7.00;;
54539;SDS011;40438;52.992;18.604;2024-01-10T11:51:51;18.08;;;6.25;;
54539;SDS011;40438;52.992;18.604;2024-01-10T11:54:41;17.17;;;5.82;;
54539;SDS011;40438;52.992;18.604;2024-01-10T11:57:08;19.08;;;5.50;;
54539;SDS011;40438;52.992;18.604;2024-01-10T11:59:35;20.35;;;8.60;;
54539;SDS011;40438;52.992;18.604;2024-01-10T12:02:04;12.25;;;6.40;;
54539;SDS011;40438;52.992;18.604;2024-01-10T12:04:31;18.15;;;6.30;;
54539;SDS011;40438;52.992;18.604;2024-01-10T12:06:57;15.48;;;7.38;;
54539;SDS011;40438;52.992;18.604;2024-01-10T12:09:24;16.58;;;5.65;;
54539;SDS011;40438;52.992;18.604;2024-01-10T12:11:50;13.40;;;6.10;;
54539;SDS011;40438;52.992;18.604;2024-01-10T12:14:16;21.27;;;7.45;;
54539;SDS011;40438;52.992;18.604;2024-01-10T12:16:42;19.33;;;8.45;;
54539;SDS011;40438;52.992;18.604;2024-01-10T12:19:10;23.10;;;8.48;;
54539;SDS011;40438;52.992;18.604;2024-01-10T12:21:35;16.02;;;6.85;;
54539;SDS011;40438;52.992;18.604;2024-01-10T12:24:03;19.13;;;6.50;;
54539;SDS011;40438;52.992;18.604;2024-01-10T12:26:28;22.33;;;7.85;;
54539;SDS011;40438;52.992;18.604;2024-01-10T12:28:55;21.90;;;8.32;;
54539;SDS011;40438;52.992;18.604;2024-01-10T12:31:21;19.77;;;8.40;;
54539;SDS011;40438;52.992;18.604;2024-01-10T12:33:47;17.33;;;7.28;;
54539;SDS011;40438;52.992;18.604;2024-01-10T12:36:14;23.40;;;8.88;;
54539;SDS011;40438;52.992;18.604;2024-01-10T12:38:42;24.10;;;7.82;;
54539;SDS011;40438;52.992;18.604;2024-01-10T12:41:08;20.38;;;8.48;;
54539;SDS011;40438;52.992;18.604;2024-01-10T12:43:35;17.63;;;7.60;;
54539;SDS011;40438;52.992;18.604;2024-01-10T12:46:05;11.15;;;5.65;;
54539;SDS011;40438;52.992;18.604;2024-01-10T12:48:31;10.20;;;6.07;;
54539;SDS011;40438;52.992;18.604;2024-01-10T12:50:57;15.57;;;6.78;;
54539;SDS011;40438;52.992;18.604;2024-01-10T12:53:24;17.52;;;7.38;;
54539;SDS011;40438;52.992;18.604;2024-01-10T12:55:50;20.45;;;8.95;;
54539;SDS011;40438;52.992;18.604;2024-01-10T12:58:16;15.88;;;7.00;;
54539;SDS011;40438;52.992;18.604;2024-01-10T13:00:42;26.02;;;9.27;;
54539;SDS011;40438;52.992;18.604;2024-01-10T13:03:07;29.15;;;8.95;;
54539;SDS011;40438;52.992;18.604;2024-01-10T13:05:33;25.75;;;9.23;;
54539;SDS011;40438;52.992;18.604;2024-01-10T13:07:59;21.13;;;8.73;;
54539;SDS011;40438;52.992;18.604;2024-01-10T13:10:26;27.67;;;9.57;;
54539;SDS011;40438;52.992;18.604;2024-01-10T13:12:52;25.60;;;8.43;;
54539;SDS011;40438;52.992;18.604;2024-01-10T13:15:18;21.15;;;8.10;;
54539;SDS011;40438;52.992;18.604;2024-01-10T13:17:43;20.63;;;7.93;;
54539;SDS011;40438;52.992;18.604;2024-01-10T13:20:09;21.10;;;7.20;;
54539;SDS011;40438;52.992;18.604;2024-01-10T13:22:36;15.25;;;6.22;;
54539;SDS011;40438;52.992;18.604;2024-01-10T13:25:01;15.10;;;6.70;;
54539;SDS011;40438;52.992;18.604;2024-01-10T13:27:29;14.52;;;6.15;;
54539;SDS011;40438;52.992;18.604;2024-01-10T13:29:54;15.77;;;5.50;;
54539;SDS011;40438;52.992;18.604;2024-01-10T13:32:20;13.18;;;6.43;;
54539;SDS011;40438;52.992;18.604;2024-01-10T13:34:46;23.30;;;7.57;;
54539;SDS011;40438;52.992;18.604;2024-01-10T13:37:12;20.25;;;6.65;;
54539;SDS011;40438;52.992;18.604;2024-01-10T13:39:37;25.98;;;8.40;;
54539;SDS011;40438;52.992;18.604;2024-01-10T13:42:06;17.35;;;6.70;;
54539;SDS011;40438;52.992;18.604;2024-01-10T13:44:33;17.90;;;8.52;;
54539;SDS011;40438;52.992;18.604;2024-01-10T13:46:59;23.35;;;9.32;;
54539;SDS011;40438;52.992;18.604;2024-01-10T13:49:24;31.52;;;10.10;;
54539;SDS011;40438;52.992;18.604;2024-01-10T13:51:50;47.33;;;13.93;;
54539;SDS011;40438;52.992;18.604;2024-01-10T13:54:16;16.35;;;7.82;;
54539;SDS011;40438;52.992;18.604;2024-01-10T13:56:42;17.90;;;5.68;;
54539;SDS011;40438;52.992;18.604;2024-01-10T13:59:07;14.85;;;6.85;;
54539;SDS011;40438;52.992;18.604;2024-01-10T14:01:34;18.40;;;6.85;;
54539;SDS011;40438;52.992;18.604;2024-01-10T14:04:00;23.33;;;7.40;;
54539;SDS011;40438;52.992;18.604;2024-01-10T14:06:26;19.92;;;6.78;;
54539;SDS011;40438;52.992;18.604;2024-01-10T14:08:52;17.58;;;6.03;;
54539;SDS011;40438;52.992;18.604;2024-01-10T14:11:18;15.90;;;6.15;;
54539;SDS011;40438;52.992;18.604;2024-01-10T14:13:44;23.77;;;5.95;;